Nisku, Canada
Current Conditions -  °F | °C
As of 5:00 AM on Friday 19 Dec 2014 (Local Time) from CYEG Reporting Station
Few Clouds Few Clouds  
Wind Chill:   Ceiling: Unl
Heat Index: 14°   Visibility: 15mi
Dew Point: 10°   Wind: 5mph
Humidity: 86%   Direction: 170°S
Pressure: 29.73"   Gusts: NA
Location:  53.33°N, 113.53°W
Report Text: CYEG 191200Z 17004KT 15SM FEW160 FEW220 M10/M12 A2973 RMK AC1CI1 FROIN SLP115
Loading
Personal Weather Stations






























Interactive Weather Map New forecast layout! Learn more

10-Day Weather Forecast

Advertisements
Track Severe Weather on mobile